Time;durP1;ratioP1;P1;durP2;ratioP2;P2;SDS_P1;SDS_P2;PMS_P1;PMS_P2;Temp;Humidity;BMP_temperature;BMP_pressure;BME280_temperature;BME280_humidity;BME280_pressure;Samples;Min_cycle;Max_cycle;Signal;HPM_P1;HPM_P2
2022/09/01 00:02:44;;;;;;;3.90;2.30;;;20.60;99.90;;;;;;1886974;75;21181;-77
2022/09/01 00:05:36;;;;;;;2.50;2.10;;;20.50;99.90;;;;;;1906249;75;21039;-77
2022/09/01 00:08:27;;;;;;;3.87;2.25;;;20.60;99.90;;;;;;1895163;75;21094;-77
2022/09/01 00:11:19;;;;;;;3.02;2.35;;;20.60;99.90;;;;;;1907980;75;21134;-77
2022/09/01 00:14:11;;;;;;;3.42;2.20;;;20.60;99.90;;;;;;1885114;75;21157;-76
2022/09/01 00:17:07;;;;;;;4.58;2.50;;;20.50;99.90;;;;;;1884996;75;21102;-76
2022/09/01 00:22:37;;;;;;;2.85;2.15;;;20.40;99.90;;;;;;1951672;72;22134;-77
2022/09/01 00:25:29;;;;;;;4.33;2.37;;;20.30;99.90;;;;;;1895804;75;21093;-78
2022/09/01 00:28:21;;;;;;;2.58;2.10;;;20.20;99.90;;;;;;1886986;75;21141;-77
2022/09/01 00:31:14;;;;;;;4.97;2.70;;;20.20;99.90;;;;;;1907893;75;21118;-78
2022/09/01 00:34:06;;;;;;;3.72;2.70;;;20.10;99.90;;;;;;1884966;75;21050;-78
2022/09/01 00:36:58;;;;;;;5.25;2.95;;;20.20;99.90;;;;;;1913106;75;21125;-78
2022/09/01 00:42:28;;;;;;;3.33;2.40;;;20.30;99.90;;;;;;1946454;72;22146;-77
2022/09/01 00:47:58;;;;;;;5.40;2.70;;;20.10;99.90;;;;;;1948296;72;22259;-78
2022/09/01 00:50:51;;;;;;;4.05;2.70;;;20.20;99.90;;;;;;1922176;73;21099;-77
2022/09/01 00:53:45;;;;;;;2.83;2.22;;;20.10;99.90;;;;;;1940253;73;21143;-78
2022/09/01 00:56:39;;;;;;;2.70;1.87;;;20.10;99.90;;;;;;1940218;73;21168;-77
2022/09/01 00:59:33;;;;;;;4.47;2.55;;;20.00;99.90;;;;;;1919363;73;21065;-76
2022/09/01 01:02:25;;;;;;;3.35;2.02;;;20.00;99.90;;;;;;1922804;73;21082;-76
2022/09/01 01:07:56;;;;;;;3.87;2.40;;;20.00;99.90;;;;;;1930334;72;22308;-76
2022/09/01 01:10:47;;;;;;;2.33;1.90;;;19.90;99.90;;;;;;1905066;75;21107;-76
2022/09/01 01:13:50;;;;;;;3.75;2.02;;;19.90;99.90;;;;;;1895786;75;21062;-76
2022/09/01 01:16:43;;;;;;;3.85;2.00;;;19.90;99.90;;;;;;1913149;75;21094;-76
2022/09/01 01:23:04;;;;;;;2.83;2.40;;;19.80;99.90;;;;;;1849425;76;21181;-76
2022/09/01 01:25:59;;;;;;;2.77;2.02;;;19.90;99.90;;;;;;1903187;75;21703;-77
2022/09/01 01:28:53;;;;;;;3.58;2.10;;;19.80;99.90;;;;;;1898544;75;21103;-78
2022/09/01 01:31:48;;;;;;;3.30;2.45;;;19.80;99.90;;;;;;1898327;74;21135;-78
2022/09/01 01:37:19;;;;;;;3.58;2.60;;;19.70;99.90;;;;;;1945392;72;22114;-77
2022/09/01 01:40:14;;;;;;;4.12;2.98;;;19.60;99.90;;;;;;1908004;75;21154;-77
2022/09/01 01:43:06;;;;;;;10.05;2.77;;;19.50;99.90;;;;;;1884653;75;21059;-77
2022/09/01 01:46:01;;;;;;;4.37;2.20;;;19.50;99.90;;;;;;1901029;75;21058;-79
2022/09/01 01:48:54;;;;;;;2.58;2.20;;;19.50;99.90;;;;;;1901420;75;21162;-79
2022/09/01 01:51:46;;;;;;;4.58;2.50;;;19.40;99.90;;;;;;1907833;75;21173;-79
2022/09/01 01:54:37;;;;;;;3.05;2.10;;;19.30;99.90;;;;;;1900643;75;21047;-77
2022/09/01 01:57:31;;;;;;;5.22;2.30;;;19.30;99.90;;;;;;1885995;75;21062;-79
2022/09/01 02:06:10;;;;;;;4.95;3.30;;;19.40;99.90;;;;;;1946954;72;22151;-78
2022/09/01 02:09:03;;;;;;;2.72;2.25;;;19.60;99.90;;;;;;1924713;73;21107;-79
2022/09/01 02:11:56;;;;;;;2.95;2.60;;;19.70;99.90;;;;;;1937509;73;21124;-78
2022/09/01 02:17:26;;;;;;;3.05;2.10;;;19.60;99.90;;;;;;1921688;72;22251;-80
2022/09/01 02:22:56;;;;;;;4.62;2.60;;;19.20;99.90;;;;;;1928233;72;22241;-77
2022/09/01 02:25:47;;;;;;;7.67;2.40;;;19.20;99.90;;;;;;1921871;74;21046;-81
2022/09/01 02:28:42;;;;;;;2.70;2.22;;;19.20;99.90;;;;;;1902302;75;21075;-80
2022/09/01 02:31:38;;;;;;;4.97;2.37;;;19.20;99.90;;;;;;1914025;75;21058;-79
2022/09/01 02:34:30;;;;;;;4.70;2.33;;;19.20;99.90;;;;;;1907487;74;21520;-80
2022/09/01 02:37:24;;;;;;;3.30;2.55;;;19.30;99.90;;;;;;1908586;74;21062;-78
2022/09/01 02:40:15;;;;;;;2.52;2.33;;;19.30;99.90;;;;;;1915666;74;21136;-78
2022/09/01 02:43:07;;;;;;;3.75;2.20;;;19.20;99.90;;;;;;1920696;74;21093;-78
2022/09/01 02:46:01;;;;;;;6.50;2.80;;;19.10;99.90;;;;;;1917455;75;21106;-80
2022/09/01 02:48:53;;;;;;;3.62;2.70;;;19.10;99.90;;;;;;1892242;74;21603;-80
2022/09/01 02:51:47;;;;;;;2.67;2.45;;;19.10;99.90;;;;;;1902048;74;21066;-80
2022/09/01 02:57:18;;;;;;;3.52;2.60;;;19.30;99.90;;;;;;1941187;72;22557;-79
2022/09/01 03:00:19;;;;;;;4.55;2.40;;;19.30;99.90;;;;;;1902005;75;21114;-79
2022/09/01 03:03:06;;;;;;;3.17;2.60;;;19.30;99.90;;;;;;1895745;75;21121;-78
2022/09/01 03:06:00;;;;;;;2.95;2.37;;;19.30;99.90;;;;;;1905957;75;21059;-79
2022/09/01 03:08:51;;;;;;;2.47;2.25;;;19.30;99.90;;;;;;1834007;77;21107;-79
2022/09/01 03:11:45;;;;;;;3.05;2.27;;;19.30;99.90;;;;;;1903407;75;21084;-79
2022/09/01 03:14:36;;;;;;;3.87;2.05;;;19.30;99.90;;;;;;1909137;75;21098;-79
2022/09/01 03:17:28;;;;;;;4.28;2.45;;;19.30;99.90;;;;;;1885420;75;21067;-79
2022/09/01 03:20:20;;;;;;;3.42;2.22;;;19.30;99.90;;;;;;1885839;75;21114;-79
2022/09/01 03:23:14;;;;;;;2.90;2.15;;;19.30;99.90;;;;;;1884733;75;21102;-78
2022/09/01 03:28:47;;;;;;;2.58;2.37;;;19.30;99.90;;;;;;1951625;72;22224;-79
2022/09/01 03:31:39;;;;;;;3.00;2.17;;;19.10;99.90;;;;;;1930861;73;21130;-78
2022/09/01 03:34:33;;;;;;;2.58;2.10;;;19.00;99.90;;;;;;1917603;73;21070;-78
2022/09/01 03:37:22;;;;;;;2.92;2.47;;;18.90;99.90;;;;;;1916658;73;21571;-77
2022/09/01 03:40:17;;;;;;;3.80;2.35;;;18.90;99.90;;;;;;1939002;73;21490;-78
2022/09/01 03:43:12;;;;;;;2.92;2.45;;;19.00;99.90;;;;;;1917632;75;21168;-78
2022/09/01 03:48:42;;;;;;;2.90;2.30;;;19.00;99.90;;;;;;1911607;72;22125;-79
2022/09/01 03:51:36;;;;;;;3.52;2.67;;;19.00;99.90;;;;;;1907804;75;21438;-78
2022/09/01 03:54:29;;;;;;;5.50;2.83;;;19.10;99.90;;;;;;1882168;75;21097;-78
2022/09/01 03:57:22;;;;;;;3.95;2.55;;;19.10;99.90;;;;;;1882451;75;21058;-81
2022/09/01 04:02:56;;;;;;;3.22;2.25;;;19.10;99.90;;;;;;1950991;72;22739;-77
2022/09/01 04:05:47;;;;;;;2.77;2.52;;;19.10;99.90;;;;;;1929341;73;21119;-78
2022/09/01 04:08:39;;;;;;;3.87;2.67;;;19.10;99.90;;;;;;1917569;75;21039;-78
2022/09/01 04:11:31;;;;;;;4.15;2.27;;;19.00;99.90;;;;;;1925328;73;21113;-78
2022/09/01 04:14:24;;;;;;;2.92;2.40;;;19.00;99.90;;;;;;1930199;73;21059;-78
2022/09/01 04:20:26;;;;;;;3.62;2.45;;;19.00;99.90;;;;;;1917808;75;21054;-78
2022/09/01 04:23:25;;;;;;;6.78;2.30;;;19.00;99.90;;;;;;1917686;75;21057;-78
2022/09/01 04:26:19;;;;;;;3.27;2.42;;;19.00;99.90;;;;;;1917628;73;21094;-77
2022/09/01 04:29:10;;;;;;;4.37;2.52;;;19.00;99.90;;;;;;1923910;73;21079;-76
2022/09/01 04:32:05;;;;;;;2.85;2.58;;;19.00;99.90;;;;;;1925289;73;21058;-78
2022/09/01 04:37:36;;;;;;;3.58;2.50;;;19.00;99.90;;;;;;1952301;72;22157;-78
2022/09/01 04:40:29;;;;;;;4.25;2.50;;;19.00;99.90;;;;;;1921956;73;21059;-78
2022/09/01 04:43:20;;;;;;;2.80;2.50;;;19.00;99.90;;;;;;1917563;73;21153;-78
2022/09/01 04:46:13;;;;;;;2.65;2.45;;;19.00;99.90;;;;;;1936447;73;21051;-78
2022/09/01 04:49:08;;;;;;;4.10;2.92;;;19.00;99.90;;;;;;1921448;73;21050;-78
2022/09/01 04:52:01;;;;;;;4.23;2.60;;;19.00;99.90;;;;;;1926025;73;21102;-78
2022/09/01 04:54:53;;;;;;;5.17;4.35;;;18.90;99.90;;;;;;1946123;73;21569;-77
2022/09/01 04:57:48;;;;;;;2.90;2.60;;;19.00;99.90;;;;;;1890864;75;21091;-77
2022/09/01 05:00:54;;;;;;;4.22;2.77;;;19.00;99.90;;;;;;1929133;73;21098;-77
2022/09/01 05:03:47;;;;;;;4.15;2.60;;;19.10;99.90;;;;;;1917450;73;21169;-76
2022/09/01 05:09:23;;;;;;;2.90;2.60;;;19.00;99.90;;;;;;1942478;72;22540;-78
2022/09/01 05:12:22;;;;;;;3.80;2.80;;;19.00;99.90;;;;;;1907782;75;21208;-76
2022/09/01 05:15:16;;;;;;;4.22;2.65;;;19.00;99.90;;;;;;1893745;75;21051;-76
2022/09/01 05:18:09;;;;;;;4.05;2.90;;;19.00;99.90;;;;;;1906945;75;21079;-78
2022/09/01 05:21:04;;;;;;;5.70;2.87;;;19.00;99.90;;;;;;1902788;75;21050;-79
2022/09/01 05:23:55;;;;;;;3.02;2.75;;;19.00;99.90;;;;;;1893823;75;21220;-78
2022/09/01 05:26:49;;;;;;;4.17;2.50;;;19.10;99.90;;;;;;1899226;75;21067;-74
2022/09/01 05:32:20;;;;;;;3.90;2.60;;;19.10;99.90;;;;;;1931967;72;22191;-74
2022/09/01 05:35:12;;;;;;;3.25;2.75;;;19.00;99.90;;;;;;1898622;74;21042;-75
2022/09/01 05:38:09;;;;;;;3.62;2.90;;;19.10;99.90;;;;;;1909614;75;21526;-74
2022/09/01 05:41:13;;;;;;;5.85;2.65;;;19.10;99.90;;;;;;1884429;75;21141;-75
2022/09/01 05:44:10;;;;;;;6.03;2.67;;;19.10;99.90;;;;;;1895785;75;21082;-75
2022/09/01 05:47:02;;;;;;;6.33;2.70;;;19.10;99.90;;;;;;1896120;75;21220;-75
2022/09/01 05:49:57;;;;;;;3.35;3.02;;;19.20;99.90;;;;;;1897217;75;21158;-80
2022/09/01 05:52:49;;;;;;;7.72;2.98;;;19.20;99.90;;;;;;1909432;75;21083;-78
2022/09/01 05:55:42;;;;;;;5.10;3.00;;;19.20;99.90;;;;;;1899258;74;21050;-82
2022/09/01 05:58:34;;;;;;;6.70;2.80;;;19.20;99.90;;;;;;1890716;75;21047;-77
2022/09/01 06:01:33;;;;;;;4.50;3.50;;;19.20;99.90;;;;;;1898622;75;21095;-83
2022/09/01 06:04:32;;;;;;;4.65;3.37;;;19.30;99.90;;;;;;1888981;75;21487;-81
2022/09/01 06:07:32;;;;;;;4.92;3.55;;;19.30;99.90;;;;;;1890495;75;21070;-81
2022/09/01 06:13:07;;;;;;;5.37;3.58;;;19.40;99.90;;;;;;1948234;72;22208;-79
2022/09/01 06:16:01;;;;;;;6.62;3.50;;;19.40;99.90;;;;;;1899707;75;21164;-82
2022/09/01 06:18:54;;;;;;;4.67;3.70;;;19.40;99.90;;;;;;1884503;75;21121;-81
2022/09/01 06:21:46;;;;;;;7.00;3.62;;;19.40;99.90;;;;;;1897113;75;21105;-80
2022/09/01 06:24:39;;;;;;;4.97;3.30;;;19.50;99.90;;;;;;1884415;75;21103;-79
2022/09/01 06:27:37;;;;;;;5.95;3.75;;;19.60;99.90;;;;;;1896526;75;21125;-79
2022/09/01 06:30:27;;;;;;;3.95;3.12;;;19.70;99.90;;;;;;1904245;75;21059;-79
2022/09/01 06:33:24;;;;;;;5.25;3.08;;;19.70;99.90;;;;;;1903675;75;21043;-80
2022/09/01 06:36:16;;;;;;;4.92;3.00;;;19.70;99.90;;;;;;1902466;75;21110;-82
2022/09/01 06:39:18;;;;;;;7.67;3.05;;;19.70;99.90;;;;;;1901545;75;21096;-81
2022/09/01 06:42:03;;;;;;;6.85;3.35;;;19.70;99.90;;;;;;1906859;75;21151;-81
2022/09/01 06:44:58;;;;;;;10.50;3.65;;;19.80;99.90;;;;;;1885315;75;21103;-81
2022/09/01 06:47:56;;;;;;;12.75;3.60;;;19.90;99.90;;;;;;1897953;75;21165;-79
2022/09/01 06:50:49;;;;;;;13.90;6.45;;;19.90;99.90;;;;;;1890080;75;21054;-79
2022/09/01 06:53:42;;;;;;;9.03;3.70;;;20.00;99.90;;;;;;1889235;75;21108;-83
2022/09/01 06:56:35;;;;;;;5.78;3.60;;;20.10;99.90;;;;;;1897335;75;21148;-80
2022/09/01 06:59:35;;;;;;;6.85;3.25;;;20.10;99.90;;;;;;1894479;75;21179;-79
2022/09/01 07:02:29;;;;;;;4.03;3.30;;;20.10;99.90;;;;;;1890197;75;21051;-80
2022/09/01 07:05:27;;;;;;;4.80;2.87;;;20.10;99.90;;;;;;1884509;75;21129;-80
2022/09/01 07:08:22;;;;;;;6.00;3.20;;;20.20;99.90;;;;;;1884619;75;21127;-84
2022/09/01 07:11:33;;;;;;;4.85;3.42;;;20.20;99.90;;;;;;1889707;75;21102;-86
2022/09/01 07:14:26;;;;;;;3.60;3.00;;;20.20;99.90;;;;;;1898911;74;21700;-81
2022/09/01 07:17:20;;;;;;;3.60;2.75;;;20.20;99.90;;;;;;1915933;74;21043;-81
2022/09/01 07:22:53;;;;;;;5.37;3.50;;;20.40;99.90;;;;;;1946373;72;22456;-80
2022/09/01 07:25:48;;;;;;;6.08;3.37;;;20.40;99.90;;;;;;1926162;73;21137;-80
2022/09/01 07:28:53;;;;;;;11.43;3.75;;;20.40;99.90;;;;;;1917272;75;21110;-80
2022/09/01 07:31:58;;;;;;;8.05;4.03;;;20.40;99.90;;;;;;1917875;73;21097;-82
2022/09/01 07:37:37;;;;;;;15.58;5.03;;;20.50;99.90;;;;;;1940194;72;22094;-79
2022/09/01 07:40:41;;;;;;;14.03;4.40;;;20.50;99.90;;;;;;1902877;75;21617;-79
2022/09/01 07:44:09;;;;;;;7.28;4.58;;;20.60;99.90;;;;;;1908454;75;21118;-83
2022/09/01 07:47:00;;;;;;;7.87;3.62;;;20.60;99.90;;;;;;1890169;75;21565;-77
2022/09/01 07:49:54;;;;;;;11.22;5.70;;;20.70;99.90;;;;;;1895245;75;21144;-84
2022/09/01 07:52:54;;;;;;;8.13;3.92;;;20.80;99.90;;;;;;1898687;75;21122;-80
2022/09/01 07:55:55;;;;;;;4.50;3.15;;;20.90;99.90;;;;;;1894577;75;21046;-77
2022/09/01 07:58:48;;;;;;;5.58;3.92;;;20.90;99.90;;;;;;1884091;75;21184;-81
2022/09/01 08:01:51;;;;;;;5.50;3.67;;;21.00;99.90;;;;;;1886192;75;21158;-80
2022/09/01 08:04:47;;;;;;;7.17;4.50;;;21.00;99.90;;;;;;1902951;75;21100;-76
2022/09/01 08:07:39;;;;;;;6.62;5.62;;;21.10;99.90;;;;;;1884628;76;21120;-83
2022/09/01 08:10:32;;;;;;;5.30;3.67;;;21.20;99.90;;;;;;1896013;75;21256;-77
2022/09/01 08:13:26;;;;;;;6.37;3.95;;;21.30;99.90;;;;;;1895591;75;21168;-77
2022/09/01 08:16:27;;;;;;;4.10;3.70;;;21.40;99.90;;;;;;1901280;75;21066;-77
2022/09/01 08:19:30;;;;;;;7.87;3.65;;;21.40;99.90;;;;;;1895492;75;21051;-77
2022/09/01 08:22:36;;;;;;;4.17;3.62;;;21.40;99.90;;;;;;1889209;75;21416;-77
2022/09/01 08:25:32;;;;;;;5.30;3.40;;;21.50;99.90;;;;;;1885492;75;21063;-78
2022/09/01 08:28:23;;;;;;;6.22;3.27;;;21.50;99.90;;;;;;1895328;75;21097;-78
2022/09/01 08:31:30;;;;;;;5.47;2.98;;;21.60;99.90;;;;;;1887400;75;21062;-78
2022/09/01 08:34:23;;;;;;;3.98;3.00;;;21.60;99.90;;;;;;1906847;75;21054;-78
2022/09/01 08:37:27;;;;;;;4.28;3.02;;;21.70;99.90;;;;;;1902175;74;21553;-77
2022/09/01 08:43:03;;;;;;;5.85;3.72;;;21.90;99.90;;;;;;1927190;72;22122;-77
2022/09/01 08:45:59;;;;;;;5.05;3.30;;;21.90;99.90;;;;;;1899348;75;21055;-77
2022/09/01 08:49:09;;;;;;;4.28;3.47;;;22.00;99.90;;;;;;1885660;75;21051;-77
2022/09/01 08:52:14;;;;;;;5.12;3.72;;;22.00;99.90;;;;;;1871841;75;21514;-76
2022/09/01 08:55:10;;;;;;;4.50;3.67;;;22.10;99.90;;;;;;1887121;75;21054;-76
2022/09/01 08:58:04;;;;;;;5.03;3.90;;;22.20;99.90;;;;;;1899538;75;21137;-77
2022/09/01 09:01:06;;;;;;;5.10;3.50;;;22.20;99.90;;;;;;1910489;75;21103;-77
2022/09/01 09:04:26;;;;;;;8.15;4.10;;;22.10;99.90;;;;;;1904622;75;21093;-77
2022/09/01 09:07:31;;;;;;;5.30;4.00;;;22.20;99.90;;;;;;1885244;76;21482;-76
2022/09/01 09:10:22;;;;;;;;;;;22.10;99.90;;;;;;1903883;75;21205;-77
2022/09/01 09:13:17;;;;;;;4.75;3.47;;;22.20;99.90;;;;;;1895866;75;20143;-77
2022/09/01 09:16:12;;;;;;;5.78;3.77;;;22.20;99.90;;;;;;1910918;75;21117;-77
2022/09/01 09:19:06;;;;;;;5.75;3.95;;;22.20;99.90;;;;;;1906833;75;21047;-77
2022/09/01 09:22:10;;;;;;;5.92;4.10;;;22.30;99.90;;;;;;1906150;75;21565;-77
2022/09/01 09:25:13;;;;;;;4.90;3.92;;;22.30;99.90;;;;;;1904049;75;21055;-77
2022/09/01 09:28:06;;;;;;;6.42;4.03;;;22.40;99.90;;;;;;1902337;75;21139;-77
2022/09/01 09:31:28;;;;;;;6.95;4.17;;;22.50;99.90;;;;;;1906461;75;21132;-77
2022/09/01 09:34:34;;;;;;;8.70;4.47;;;22.60;99.90;;;;;;1898685;75;21067;-78
2022/09/01 09:37:28;;;;;;;5.90;4.65;;;22.70;99.90;;;;;;1895744;75;21200;-77
2022/09/01 09:40:28;;;;;;;4.80;3.72;;;22.80;99.90;;;;;;1895412;75;21080;-77
2022/09/01 09:43:31;;;;;;;4.00;3.62;;;22.90;99.90;;;;;;1903803;74;21166;-77
2022/09/01 09:46:26;;;;;;;5.47;3.30;;;22.90;99.90;;;;;;1905221;74;21088;-77
2022/09/01 09:49:22;;;;;;;3.92;3.37;;;22.90;99.90;;;;;;1910113;74;21098;-77
2022/09/01 09:55:36;;;;;;;6.55;3.62;;;23.10;99.90;;;;;;1926644;74;21120;-77
2022/09/01 09:58:40;;;;;;;5.28;3.70;;;23.20;99.90;;;;;;1904481;74;21465;-77
2022/09/01 10:01:32;;;;;;;7.17;3.60;;;23.30;99.90;;;;;;1904479;74;21059;-77
2022/09/01 10:04:38;;;;;;;6.95;3.40;;;23.30;99.90;;;;;;1925379;74;21164;-78
2022/09/01 10:07:35;;;;;;;3.70;3.20;;;23.40;99.90;;;;;;1893804;76;21549;-77
2022/09/01 10:10:30;;;;;;;3.70;3.33;;;23.50;99.90;;;;;;1910649;74;21055;-77
2022/09/01 10:13:24;;;;;;;5.87;3.40;;;23.50;99.90;;;;;;1906247;74;21084;-79
2022/09/01 10:16:21;;;;;;;4.45;3.35;;;23.40;99.90;;;;;;1904460;74;21200;-77
2022/09/01 10:19:18;;;;;;;5.40;3.50;;;23.40;99.90;;;;;;1900003;74;21105;-77
2022/09/01 10:22:12;;;;;;;3.55;3.10;;;23.50;99.90;;;;;;1915708;74;21156;-78
2022/09/01 10:25:07;;;;;;;5.58;3.75;;;23.50;99.90;;;;;;1911571;74;21498;-78
2022/09/01 10:28:04;;;;;;;4.53;3.55;;;23.60;99.90;;;;;;1912479;74;21062;-78
2022/09/01 10:30:57;;;;;;;3.85;3.33;;;23.60;99.90;;;;;;1915649;74;21067;-78
2022/09/01 10:33:50;;;;;;;4.70;3.62;;;23.60;99.90;;;;;;1917156;74;21256;-79
2022/09/01 10:36:43;;;;;;;4.45;3.35;;;23.70;99.90;;;;;;1907716;74;21267;-80
2022/09/01 10:39:45;;;;;;;4.15;3.45;;;23.80;99.90;;;;;;1909344;74;21066;-81
2022/09/01 10:42:39;;;;;;;3.80;2.85;;;23.80;99.90;;;;;;1911722;74;21139;-81
2022/09/01 10:45:34;;;;;;;3.25;2.55;;;23.90;99.90;;;;;;1908764;74;21122;-88
2022/09/01 10:48:38;;;;;;;4.03;2.80;;;24.00;99.90;;;;;;1903531;74;21167;-87
2022/09/01 10:51:47;;;;;;;5.08;2.92;;;24.10;99.90;;;;;;1899787;74;21140;-87
2022/09/01 10:54:59;;;;;;;3.40;2.80;;;24.10;99.90;;;;;;1916737;74;21072;-88
2022/09/01 11:01:03;;;;;;;5.60;3.02;;;24.10;99.90;;;;;;1899672;74;22276;-88
2022/09/01 11:03:57;;;;;;;4.12;2.52;;;24.20;99.90;;;;;;1872193;75;21138;-89
2022/09/01 11:07:01;;;;;;;4.80;2.55;;;24.20;99.90;;;;;;1860748;75;21152;-88
2022/09/01 11:10:40;;;;;;;2.87;2.33;;;24.40;99.90;;;;;;1864695;75;21090;-88
2022/09/01 11:13:39;;;;;;;5.00;3.00;;;24.50;99.90;;;;;;1866928;75;21103;-88
2022/09/01 11:16:36;;;;;;;;;;;24.60;99.90;;;;;;1892247;75;21151;-87
2022/09/01 11:19:40;;;;;;;5.35;2.90;;;24.50;99.90;;;;;;1886888;75;20173;-88
2022/09/01 11:22:38;;;;;;;3.22;2.92;;;24.60;99.90;;;;;;1893848;75;21175;-85
2022/09/01 11:25:38;;;;;;;3.47;2.60;;;24.70;99.90;;;;;;1928838;73;21092;-89
2022/09/01 11:28:47;;;;;;;3.50;2.58;;;24.80;99.90;;;;;;1870253;75;21203;-89
2022/09/01 11:31:43;;;;;;;236.68;210.80;;;24.80;99.90;;;;;;1881686;75;21182;-82
2022/09/01 11:34:36;;;;;;;;;;;24.90;99.90;;;;;;1936032;73;21108;-83
2022/09/01 11:37:37;;;;;;;4.37;3.17;;;25.00;99.90;;;;;;1928767;73;20116;-79
2022/09/01 11:43:45;;;;;;;4.05;3.70;;;25.20;99.90;;;;;;1923527;73;21096;-79
2022/09/01 11:46:43;;;;;;;4.03;3.50;;;25.40;99.90;;;;;;1940668;73;21182;-79
2022/09/01 11:49:33;;;;;;;4.70;2.95;;;25.60;99.90;;;;;;1931568;73;21187;-78
2022/09/01 11:52:34;;;;;;;3.20;2.90;;;25.70;99.90;;;;;;1922586;73;21093;-78
2022/09/01 11:55:35;;;;;;;4.05;2.75;;;25.70;99.90;;;;;;1925047;73;21568;-79
2022/09/01 11:58:38;;;;;;;3.15;2.87;;;25.70;99.90;;;;;;1933855;73;21065;-79
2022/09/01 12:04:21;;;;;;;3.77;2.62;;;25.70;99.90;;;;;;1953109;72;22179;-79
2022/09/01 12:09:52;;;;;;;3.95;2.98;;;25.80;99.90;;;;;;1942188;72;22189;-79
2022/09/01 12:12:45;;;;;;;3.77;2.95;;;26.00;99.90;;;;;;1917230;75;21628;-79
2022/09/01 12:15:56;;;;;;;4.13;3.03;;;26.00;99.90;;;;;;1917703;75;21302;-79
2022/09/01 12:18:50;;;;;;;4.58;2.95;;;26.10;99.90;;;;;;1917372;74;21593;-80
2022/09/01 12:24:25;;;;;;;3.12;2.50;;;26.30;99.90;;;;;;1945134;72;22176;-80
2022/09/01 12:27:16;;;;;;;4.17;2.70;;;26.40;99.90;;;;;;1928252;73;21039;-82
2022/09/01 12:30:11;;;;;;;5.12;3.00;;;26.50;99.90;;;;;;1917296;75;21465;-79
2022/09/01 12:35:46;;;;;;;2.83;2.58;;;26.60;99.90;;;;;;1944570;72;22075;-78
2022/09/01 12:38:40;;;;;;;4.30;2.30;;;26.70;99.90;;;;;;1917163;75;21090;-81
2022/09/01 12:41:46;;;;;;;2.72;2.10;;;26.70;99.90;;;;;;1917133;75;21116;-86
2022/09/01 12:44:49;;;;;;;3.80;2.40;;;26.70;99.90;;;;;;1917013;75;21138;-86
2022/09/01 12:47:49;;;;;;;3.50;2.35;;;26.80;99.90;;;;;;1918078;73;21138;-86
2022/09/01 12:50:46;;;;;;;2.75;2.20;;;27.00;99.90;;;;;;1939275;73;21047;-86
2022/09/01 12:56:29;;;;;;;2.87;2.20;;;27.00;99.90;;;;;;1952606;72;22280;-76
2022/09/01 12:59:26;;;;;;;2.40;2.20;;;27.10;99.90;;;;;;1908394;75;21114;-75
2022/09/01 13:02:31;;;;;;;3.72;1.92;;;27.00;99.90;;;;;;1902104;75;21039;-77
2022/09/01 13:05:26;;;;;;;1.95;1.75;;;27.00;99.90;;;;;;1908500;75;21035;-77
2022/09/01 13:08:25;;;;;;;2.22;1.87;;;27.00;99.90;;;;;;1905406;75;21219;-79
2022/09/01 13:14:16;;;;;;;2.47;2.10;;;27.30;99.90;;;;;;1943019;72;22268;-79
2022/09/01 13:17:07;;;;;;;2.12;1.95;;;27.30;99.90;;;;;;1892279;75;21130;-79
2022/09/01 13:20:01;;;;;;;100.22;86.65;;;27.30;99.90;;;;;;1901286;75;21223;-86
2022/09/01 13:22:53;;;;;;;2.95;2.02;;;27.40;99.90;;;;;;1896339;75;21605;-77
2022/09/01 13:25:45;;;;;;;2.42;1.57;;;27.50;99.90;;;;;;1899008;75;21051;-77
2022/09/01 13:28:37;;;;;;;2.52;2.08;;;27.50;99.90;;;;;;1896100;75;21094;-76
2022/09/01 13:31:32;;;;;;;2.00;1.90;;;27.60;99.90;;;;;;1852833;76;21133;-76
2022/09/01 13:34:25;;;;;;;3.45;1.90;;;27.70;99.90;;;;;;1887061;75;21138;-76
2022/09/01 13:39:58;;;;;;;1.82;1.52;;;27.80;99.90;;;;;;1937096;72;22161;-76
2022/09/01 13:42:55;;;;;;;1.62;1.52;;;27.80;99.90;;;;;;1902798;75;21117;-76
2022/09/01 13:45:47;;;;;;;2.87;1.87;;;27.80;99.90;;;;;;1905227;75;21191;-75
2022/09/01 13:48:38;;;;;;;1.72;1.62;;;27.90;99.90;;;;;;1884333;75;21091;-74
2022/09/01 13:51:31;;;;;;;2.90;1.72;;;28.10;99.90;;;;;;1894845;75;21613;-76
2022/09/01 13:54:22;;;;;;;2.83;1.80;;;28.10;99.90;;;;;;1889709;75;21063;-78
2022/09/01 13:57:26;;;;;;;2.22;2.00;;;28.40;99.90;;;;;;1884337;75;21506;-77
2022/09/01 14:00:28;;;;;;;2.33;1.72;;;28.50;99.90;;;;;;1884496;75;21129;-78
2022/09/01 14:03:23;;;;;;;2.45;2.15;;;28.80;99.90;;;;;;1887650;75;21529;-79
2022/09/01 14:06:15;;;;;;;2.25;1.60;;;28.70;99.90;;;;;;1884511;75;21063;-79
2022/09/01 14:09:06;;;;;;;2.87;1.72;;;28.60;99.90;;;;;;1907447;75;21051;-77
2022/09/01 14:12:07;;;;;;;1.52;1.37;;;29.50;99.90;;;;;;1884529;75;21558;-75
2022/09/01 14:15:03;;;;;;;2.77;1.87;;;30.30;99.90;;;;;;1886277;75;21108;-74
2022/09/01 14:18:04;;;;;;;2.15;1.40;;;30.70;99.90;;;;;;1892788;75;21142;-75
2022/09/01 14:21:00;;;;;;;2.00;1.70;;;31.00;99.30;;;;;;1905837;75;21117;-77
2022/09/01 14:23:51;;;;;;;2.33;1.42;;;31.60;98.50;;;;;;1906633;75;21030;-76
2022/09/01 14:26:57;;;;;;;2.58;1.60;;;31.60;96.10;;;;;;1884478;75;21109;-77
2022/09/01 14:29:51;;;;;;;2.55;1.70;;;31.40;95.20;;;;;;1884010;75;21716;-77
2022/09/01 14:32:45;;;;;;;1.77;1.40;;;31.60;94.40;;;;;;1897301;75;21162;-77
2022/09/01 14:35:39;;;;;;;2.62;1.80;;;31.90;93.70;;;;;;1909666;75;21126;-77
2022/09/01 14:41:22;;;;;;;1.37;1.25;;;31.50;91.50;;;;;;1954834;72;22115;-78
2022/09/01 14:44:21;;;;;;;1.45;1.35;;;31.30;91.10;;;;;;1937380;73;21572;-78
2022/09/01 14:47:16;;;;;;;1.45;1.30;;;31.40;90.60;;;;;;1879993;76;21089;-77
2022/09/01 14:50:11;;;;;;;1.62;1.52;;;31.40;90.50;;;;;;1942865;73;21128;-79
2022/09/01 14:53:04;;;;;;;1.60;1.50;;;31.90;90.00;;;;;;1919077;73;21204;-78
2022/09/01 14:55:56;;;;;;;3.27;1.50;;;31.90;88.40;;;;;;1928003;73;21105;-79
2022/09/01 14:58:48;;;;;;;1.60;1.47;;;31.90;88.20;;;;;;1923806;73;21106;-78
2022/09/01 15:04:19;;;;;;;1.50;1.40;;;31.80;86.50;;;;;;1934113;72;22137;-78
2022/09/01 15:07:12;;;;;;;1.75;1.30;;;32.20;85.80;;;;;;1878994;75;21187;-78
2022/09/01 15:10:04;;;;;;;2.77;1.60;;;32.80;84.20;;;;;;1871997;75;21551;-78
2022/09/01 15:12:58;;;;;;;1.65;1.55;;;32.60;82.80;;;;;;1895102;75;21062;-78
2022/09/01 15:15:49;;;;;;;1.57;1.47;;;32.70;82.50;;;;;;1882179;75;21124;-78
2022/09/01 15:18:41;;;;;;;2.42;1.52;;;32.90;81.10;;;;;;1882308;75;21160;-78
2022/09/01 15:21:34;;;;;;;1.92;1.52;;;33.00;81.00;;;;;;1887883;75;21205;-78
2022/09/01 15:24:33;;;;;;;1.52;1.40;;;33.00;80.40;;;;;;1877181;75;21047;-78
2022/09/01 15:27:25;;;;;;;1.85;1.75;;;32.90;79.30;;;;;;1883367;75;21685;-78
2022/09/01 15:30:18;;;;;;;5.60;1.80;;;33.00;78.20;;;;;;1882779;75;21101;-78
2022/09/01 15:33:10;;;;;;;1.65;1.40;;;33.20;76.80;;;;;;1858957;76;21071;-78
2022/09/01 15:36:05;;;;;;;4.00;1.45;;;33.40;76.00;;;;;;1830963;77;21127;-79
2022/09/01 15:41:49;;;;;;;2.90;1.25;;;33.30;74.90;;;;;;1945370;72;22125;-78
2022/09/01 15:44:51;;;;;;;1.47;1.37;;;33.00;75.10;;;;;;1895938;75;21221;-78
2022/09/01 15:50:26;;;;;;;2.17;1.57;;;33.30;72.90;;;;;;1948566;72;22066;-78
2022/09/01 15:53:18;;;;;;;2.30;1.42;;;33.60;71.70;;;;;;1924254;73;21173;-78
2022/09/01 15:56:09;;;;;;;2.55;1.42;;;33.70;70.90;;;;;;1938788;73;21086;-78
2022/09/01 15:59:03;;;;;;;3.67;1.65;;;33.90;70.90;;;;;;1937230;73;21099;-78
2022/09/01 16:02:06;;;;;;;2.02;1.60;;;33.70;70.10;;;;;;1917259;73;21366;-78
2022/09/01 16:04:59;;;;;;;3.65;1.50;;;33.60;69.70;;;;;;1931187;73;21131;-77
2022/09/01 16:07:51;;;;;;;1.32;1.22;;;33.70;69.60;;;;;;1923544;73;21055;-77
2022/09/01 16:10:43;;;;;;;3.60;1.52;;;34.00;69.40;;;;;;1920755;73;21566;-79
2022/09/01 16:13:34;;;;;;;2.05;1.30;;;34.60;67.60;;;;;;1917129;73;21175;-81
2022/09/01 16:16:37;;;;;;;2.37;1.60;;;34.00;67.30;;;;;;1940188;73;21055;-90
2022/09/01 16:19:35;;;;;;;1.57;1.47;;;33.10;68.40;;;;;;1932009;73;21122;-90
2022/09/01 16:22:29;;;;;;;1.40;1.30;;;32.10;71.30;;;;;;1920698;73;21120;-89
2022/09/01 16:25:28;;;;;;;3.70;1.62;;;31.60;72.00;;;;;;1917781;75;21180;-90
2022/09/01 16:28:27;;;;;;;3.85;1.67;;;30.90;74.40;;;;;;1923872;73;21117;-91
2022/09/01 16:31:23;;;;;;;3.35;1.55;;;30.30;75.30;;;;;;1924578;73;21597;-87
2022/09/01 16:34:19;;;;;;;2.05;1.70;;;30.10;76.70;;;;;;1917310;73;21394;-80
2022/09/01 16:37:17;;;;;;;4.22;2.87;;;29.70;77.40;;;;;;1943467;73;21117;-85
2022/09/01 16:40:14;;;;;;;1.43;1.30;;;29.60;78.30;;;;;;1923716;73;21117;-81
2022/09/01 16:45:56;;;;;;;3.87;1.82;;;29.70;78.00;;;;;;1933292;72;22342;-80
2022/09/01 16:51:36;;;;;;;2.77;2.00;;;29.80;77.40;;;;;;1928614;72;30961;-79
2022/09/01 16:57:15;;;;;;;4.17;1.77;;;29.40;78.90;;;;;;1942131;72;22164;-78
2022/09/01 17:00:11;;;;;;;3.50;1.85;;;29.30;80.10;;;;;;1923236;74;21582;-78
2022/09/01 17:03:16;;;;;;;2.77;1.70;;;29.50;79.50;;;;;;1929246;73;21141;-79
2022/09/01 17:06:13;;;;;;;7.12;1.57;;;29.40;80.40;;;;;;1925142;73;21089;-79